sensor_id;sensor_type;location;lat;lon;timestamp;P1;durP1;ratioP1;P2;durP2;ratioP2
38220;SDS011;24023;51.280;7.148;2022-09-28T00:00:10;3.1;;;2.5;;
38220;SDS011;24023;51.280;7.148;2022-09-28T00:05:06;3.1;;;2.5;;
38220;SDS011;24023;51.280;7.148;2022-09-28T00:10:08;1.9;;;1.7;;
38220;SDS011;24023;51.280;7.148;2022-09-28T00:15:07;1.9;;;1.7;;
38220;SDS011;24023;51.280;7.148;2022-09-28T00:20:08;1.9;;;1.7;;
38220;SDS011;24023;51.280;7.148;2022-09-28T00:25:06;2.4;;;2.0;;
38220;SDS011;24023;51.280;7.148;2022-09-28T00:30:10;2.4;;;2.0;;
38220;SDS011;24023;51.280;7.148;2022-09-28T00:35:06;2.1;;;1.9;;
38220;SDS011;24023;51.280;7.148;2022-09-28T00:40:07;2.1;;;1.9;;
38220;SDS011;24023;51.280;7.148;2022-09-28T00:45:10;2.1;;;1.9;;
38220;SDS011;24023;51.280;7.148;2022-09-28T00:50:09;2.9;;;2.1;;
38220;SDS011;24023;51.280;7.148;2022-09-28T00:55:07;2.9;;;2.1;;
38220;SDS011;24023;51.280;7.148;2022-09-28T01:00:11;3.0;;;1.6;;
38220;SDS011;24023;51.280;7.148;2022-09-28T01:05:06;3.0;;;1.6;;
38220;SDS011;24023;51.280;7.148;2022-09-28T01:10:08;1.3;;;1.2;;
38220;SDS011;24023;51.280;7.148;2022-09-28T01:15:08;1.3;;;1.2;;
38220;SDS011;24023;51.280;7.148;2022-09-28T01:20:25;5.1;;;1.7;;
38220;SDS011;24023;51.280;7.148;2022-09-28T01:25:08;5.1;;;1.7;;
38220;SDS011;24023;51.280;7.148;2022-09-28T01:30:09;1.8;;;1.5;;
38220;SDS011;24023;51.280;7.148;2022-09-28T01:35:07;1.8;;;1.5;;
38220;SDS011;24023;51.280;7.148;2022-09-28T01:40:07;1.8;;;1.5;;
38220;SDS011;24023;51.280;7.148;2022-09-28T01:45:10;2.5;;;1.8;;
38220;SDS011;24023;51.280;7.148;2022-09-28T01:50:12;2.5;;;1.8;;
38220;SDS011;24023;51.280;7.148;2022-09-28T01:55:08;1.8;;;1.6;;
38220;SDS011;24023;51.280;7.148;2022-09-28T02:00:12;1.8;;;1.6;;
38220;SDS011;24023;51.280;7.148;2022-09-28T02:05:07;1.8;;;1.6;;
38220;SDS011;24023;51.280;7.148;2022-09-28T02:10:09;2.0;;;1.7;;
38220;SDS011;24023;51.280;7.148;2022-09-28T02:15:10;2.0;;;1.7;;
38220;SDS011;24023;51.280;7.148;2022-09-28T02:20:07;2.5;;;1.8;;
38220;SDS011;24023;51.280;7.148;2022-09-28T02:25:07;2.5;;;1.8;;
38220;SDS011;24023;51.280;7.148;2022-09-28T02:30:09;2.8;;;2.6;;
38220;SDS011;24023;51.280;7.148;2022-09-28T02:35:07;2.8;;;2.6;;
38220;SDS011;24023;51.280;7.148;2022-09-28T02:40:11;2.8;;;2.6;;
38220;SDS011;24023;51.280;7.148;2022-09-28T02:45:14;3.9;;;3.3;;
38220;SDS011;24023;51.280;7.148;2022-09-28T02:50:11;3.9;;;3.3;;
38220;SDS011;24023;51.280;7.148;2022-09-28T02:55:11;3.5;;;3.0;;
38220;SDS011;24023;51.280;7.148;2022-09-28T03:00:12;3.5;;;3.0;;
38220;SDS011;24023;51.280;7.148;2022-09-28T03:05:11;3.5;;;3.0;;
38220;SDS011;24023;51.280;7.148;2022-09-28T03:10:08;4.4;;;4.0;;
38220;SDS011;24023;51.280;7.148;2022-09-28T03:15:08;4.4;;;4.0;;
38220;SDS011;24023;51.280;7.148;2022-09-28T03:20:08;4.9;;;4.4;;
38220;SDS011;24023;51.280;7.148;2022-09-28T03:25:06;4.9;;;4.4;;
38220;SDS011;24023;51.280;7.148;2022-09-28T03:30:09;4.9;;;4.4;;
38220;SDS011;24023;51.280;7.148;2022-09-28T03:35:07;5.9;;;4.8;;
38220;SDS011;24023;51.280;7.148;2022-09-28T03:40:08;5.9;;;4.8;;
38220;SDS011;24023;51.280;7.148;2022-09-28T03:45:09;5.4;;;4.9;;
38220;SDS011;24023;51.280;7.148;2022-09-28T03:50:07;5.4;;;4.9;;
38220;SDS011;24023;51.280;7.148;2022-09-28T03:55:06;5.4;;;4.9;;
38220;SDS011;24023;51.280;7.148;2022-09-28T04:00:12;8.3;;;6.9;;
38220;SDS011;24023;51.280;7.148;2022-09-28T04:05:06;8.3;;;6.9;;
38220;SDS011;24023;51.280;7.148;2022-09-28T04:10:08;8.3;;;6.9;;
38220;SDS011;24023;51.280;7.148;2022-09-28T04:15:08;8.3;;;7.5;;
38220;SDS011;24023;51.280;7.148;2022-09-28T04:20:08;10.3;;;9.2;;
38220;SDS011;24023;51.280;7.148;2022-09-28T04:25:07;10.3;;;9.2;;
38220;SDS011;24023;51.280;7.148;2022-09-28T04:30:10;8.5;;;7.8;;
38220;SDS011;24023;51.280;7.148;2022-09-28T04:35:06;8.5;;;7.8;;
38220;SDS011;24023;51.280;7.148;2022-09-28T04:40:07;8.5;;;7.8;;
38220;SDS011;24023;51.280;7.148;2022-09-28T04:45:17;7.5;;;6.8;;
38220;SDS011;24023;51.280;7.148;2022-09-28T04:50:08;7.5;;;6.8;;
38220;SDS011;24023;51.280;7.148;2022-09-28T04:55:07;7.5;;;6.8;;
38220;SDS011;24023;51.280;7.148;2022-09-28T05:00:13;7.5;;;6.8;;
38220;SDS011;24023;51.280;7.148;2022-09-28T05:05:06;7.5;;;6.8;;
38220;SDS011;24023;51.280;7.148;2022-09-28T05:10:07;8.0;;;7.3;;
38220;SDS011;24023;51.280;7.148;2022-09-28T05:15:07;8.0;;;7.3;;
38220;SDS011;24023;51.280;7.148;2022-09-28T05:20:08;8.1;;;7.4;;
38220;SDS011;24023;51.280;7.148;2022-09-28T05:25:06;8.1;;;7.4;;
38220;SDS011;24023;51.280;7.148;2022-09-28T05:30:10;10.4;;;9.3;;
38220;SDS011;24023;51.280;7.148;2022-09-28T05:35:06;10.4;;;9.3;;
38220;SDS011;24023;51.280;7.148;2022-09-28T05:40:08;10.4;;;9.3;;
38220;SDS011;24023;51.280;7.148;2022-09-28T05:45:09;11.3;;;10.2;;
38220;SDS011;24023;51.280;7.148;2022-09-28T05:50:08;11.3;;;10.2;;
38220;SDS011;24023;51.280;7.148;2022-09-28T05:55:06;11.5;;;10.5;;
38220;SDS011;24023;51.280;7.148;2022-09-28T06:00:10;11.5;;;10.5;;
38220;SDS011;24023;51.280;7.148;2022-09-28T06:05:06;11.5;;;10.5;;
38220;SDS011;24023;51.280;7.148;2022-09-28T06:10:08;10.9;;;10.0;;
38220;SDS011;24023;51.280;7.148;2022-09-28T06:15:08;10.9;;;10.0;;
38220;SDS011;24023;51.280;7.148;2022-09-28T06:20:08;12.0;;;11.0;;
38220;SDS011;24023;51.280;7.148;2022-09-28T06:25:07;12.0;;;11.0;;
38220;SDS011;24023;51.280;7.148;2022-09-28T06:30:09;11.9;;;10.7;;
38220;SDS011;24023;51.280;7.148;2022-09-28T06:35:07;11.9;;;10.7;;
38220;SDS011;24023;51.280;7.148;2022-09-28T06:40:08;11.9;;;10.7;;
38220;SDS011;24023;51.280;7.148;2022-09-28T06:45:10;11.7;;;10.7;;
38220;SDS011;24023;51.280;7.148;2022-09-28T06:50:11;9.3;;;8.6;;
38220;SDS011;24023;51.280;7.148;2022-09-28T06:55:06;9.3;;;8.6;;
38220;SDS011;24023;51.280;7.148;2022-09-28T07:00:11;9.3;;;8.6;;
38220;SDS011;24023;51.280;7.148;2022-09-28T07:05:10;8.5;;;7.8;;
38220;SDS011;24023;51.280;7.148;2022-09-28T07:10:08;8.5;;;7.8;;
38220;SDS011;24023;51.280;7.148;2022-09-28T07:15:08;7.3;;;6.6;;
38220;SDS011;24023;51.280;7.148;2022-09-28T07:20:08;7.3;;;6.6;;
38220;SDS011;24023;51.280;7.148;2022-09-28T07:25:08;7.3;;;6.6;;
38220;SDS011;24023;51.280;7.148;2022-09-28T07:30:11;7.3;;;6.6;;
38220;SDS011;24023;51.280;7.148;2022-09-28T07:35:08;7.3;;;6.6;;
38220;SDS011;24023;51.280;7.148;2022-09-28T07:41:13;5.8;;;5.3;;
38220;SDS011;24023;51.280;7.148;2022-09-28T07:45:09;5.8;;;5.3;;
38220;SDS011;24023;51.280;7.148;2022-09-28T07:50:08;5.8;;;5.3;;
38220;SDS011;24023;51.280;7.148;2022-09-28T07:55:06;5.8;;;5.2;;
38220;SDS011;24023;51.280;7.148;2022-09-28T08:00:12;5.8;;;5.2;;
38220;SDS011;24023;51.280;7.148;2022-09-28T08:05:09;5.1;;;4.6;;
38220;SDS011;24023;51.280;7.148;2022-09-28T08:10:08;5.1;;;4.6;;
38220;SDS011;24023;51.280;7.148;2022-09-28T08:15:09;6.4;;;5.9;;
38220;SDS011;24023;51.280;7.148;2022-09-28T08:25:06;8.2;;;7.5;;
38220;SDS011;24023;51.280;7.148;2022-09-28T08:30:10;8.2;;;7.5;;
38220;SDS011;24023;51.280;7.148;2022-09-28T08:35:06;9.6;;;8.7;;
38220;SDS011;24023;51.280;7.148;2022-09-28T08:40:11;12.6;;;11.4;;
38220;SDS011;24023;51.280;7.148;2022-09-28T08:45:11;12.6;;;11.4;;
38220;SDS011;24023;51.280;7.148;2022-09-28T08:50:09;12.6;;;11.4;;
38220;SDS011;24023;51.280;7.148;2022-09-28T08:55:08;12.3;;;11.2;;
38220;SDS011;24023;51.280;7.148;2022-09-28T09:00:13;12.3;;;11.2;;
38220;SDS011;24023;51.280;7.148;2022-09-28T09:05:09;11.0;;;10.0;;
38220;SDS011;24023;51.280;7.148;2022-09-28T09:10:12;11.0;;;10.0;;
38220;SDS011;24023;51.280;7.148;2022-09-28T09:15:13;11.0;;;10.0;;
38220;SDS011;24023;51.280;7.148;2022-09-28T09:20:12;8.1;;;7.4;;
38220;SDS011;24023;51.280;7.148;2022-09-28T09:25:11;8.1;;;7.4;;
38220;SDS011;24023;51.280;7.148;2022-09-28T09:30:10;7.3;;;5.8;;
38220;SDS011;24023;51.280;7.148;2022-09-28T09:35:11;7.3;;;5.8;;
38220;SDS011;24023;51.280;7.148;2022-09-28T09:40:14;7.3;;;5.8;;
38220;SDS011;24023;51.280;7.148;2022-09-28T09:45:14;5.8;;;5.1;;
38220;SDS011;24023;51.280;7.148;2022-09-28T09:50:11;5.1;;;3.1;;
38220;SDS011;24023;51.280;7.148;2022-09-28T09:55:09;5.1;;;3.1;;
38220;SDS011;24023;51.280;7.148;2022-09-28T10:00:12;3.5;;;3.2;;
38220;SDS011;24023;51.280;7.148;2022-09-28T10:05:14;3.5;;;3.2;;
38220;SDS011;24023;51.280;7.148;2022-09-28T10:10:10;3.5;;;3.2;;
38220;SDS011;24023;51.280;7.148;2022-09-28T10:15:07;3.8;;;3.0;;
38220;SDS011;24023;51.280;7.148;2022-09-28T10:20:10;3.8;;;3.0;;
38220;SDS011;24023;51.280;7.148;2022-09-28T10:25:08;4.7;;;3.3;;
38220;SDS011;24023;51.280;7.148;2022-09-28T10:30:12;4.7;;;3.3;;
38220;SDS011;24023;51.280;7.148;2022-09-28T10:35:11;4.7;;;3.3;;
38220;SDS011;24023;51.280;7.148;2022-09-28T10:40:19;3.9;;;3.4;;
38220;SDS011;24023;51.280;7.148;2022-09-28T10:45:17;3.9;;;3.4;;
38220;SDS011;24023;51.280;7.148;2022-09-28T10:50:13;3.9;;;3.4;;
38220;SDS011;24023;51.280;7.148;2022-09-28T10:55:38;5.2;;;3.3;;
38220;SDS011;24023;51.280;7.148;2022-09-28T11:00:27;5.2;;;3.3;;
38220;SDS011;24023;51.280;7.148;2022-09-28T11:05:18;4.9;;;3.0;;
38220;SDS011;24023;51.280;7.148;2022-09-28T11:10:15;2.6;;;2.2;;
38220;SDS011;24023;51.280;7.148;2022-09-28T11:15:15;2.6;;;2.2;;
38220;SDS011;24023;51.280;7.148;2022-09-28T11:20:20;2.6;;;2.2;;
38220;SDS011;24023;51.280;7.148;2022-09-28T11:25:11;4.1;;;2.2;;
38220;SDS011;24023;51.280;7.148;2022-09-28T11:30:20;2.5;;;2.0;;
38220;SDS011;24023;51.280;7.148;2022-09-28T11:35:13;2.5;;;2.0;;
38220;SDS011;24023;51.280;7.148;2022-09-28T11:40:12;2.5;;;2.0;;
38220;SDS011;24023;51.280;7.148;2022-09-28T11:45:17;2.8;;;2.2;;
38220;SDS011;24023;51.280;7.148;2022-09-28T11:50:13;2.8;;;2.2;;
38220;SDS011;24023;51.280;7.148;2022-09-28T11:55:09;3.2;;;2.3;;
38220;SDS011;24023;51.280;7.148;2022-09-28T12:00:11;3.2;;;2.3;;
38220;SDS011;24023;51.280;7.148;2022-09-28T12:05:10;3.2;;;2.3;;
38220;SDS011;24023;51.280;7.148;2022-09-28T12:10:10;4.0;;;2.1;;
38220;SDS011;24023;51.280;7.148;2022-09-28T12:15:12;4.0;;;2.1;;
38220;SDS011;24023;51.280;7.148;2022-09-28T12:20:09;3.5;;;1.7;;
38220;SDS011;24023;51.280;7.148;2022-09-28T12:25:09;3.5;;;1.7;;
38220;SDS011;24023;51.280;7.148;2022-09-28T12:30:11;3.1;;;1.1;;
38220;SDS011;24023;51.280;7.148;2022-09-28T12:35:10;3.1;;;1.1;;
38220;SDS011;24023;51.280;7.148;2022-09-28T12:40:20;3.1;;;1.1;;
38220;SDS011;24023;51.280;7.148;2022-09-28T12:45:15;2.3;;;1.2;;
38220;SDS011;24023;51.280;7.148;2022-09-28T12:50:11;2.3;;;1.2;;
38220;SDS011;24023;51.280;7.148;2022-09-28T12:55:24;2.5;;;1.3;;
38220;SDS011;24023;51.280;7.148;2022-09-28T13:00:11;2.5;;;1.3;;
38220;SDS011;24023;51.280;7.148;2022-09-28T13:05:12;2.5;;;1.3;;
38220;SDS011;24023;51.280;7.148;2022-09-28T13:10:12;5.3;;;1.3;;
38220;SDS011;24023;51.280;7.148;2022-09-28T13:15:13;5.3;;;1.3;;
38220;SDS011;24023;51.280;7.148;2022-09-28T13:20:12;1.6;;;1.0;;
38220;SDS011;24023;51.280;7.148;2022-09-28T13:25:09;1.6;;;1.0;;
38220;SDS011;24023;51.280;7.148;2022-09-28T13:30:11;1.6;;;1.0;;
38220;SDS011;24023;51.280;7.148;2022-09-28T13:35:10;2.2;;;1.0;;
38220;SDS011;24023;51.280;7.148;2022-09-28T13:40:08;2.2;;;1.0;;
38220;SDS011;24023;51.280;7.148;2022-09-28T13:45:21;1.5;;;0.7;;
38220;SDS011;24023;51.280;7.148;2022-09-28T13:50:14;1.5;;;0.7;;
38220;SDS011;24023;51.280;7.148;2022-09-28T13:55:11;1.5;;;0.7;;
38220;SDS011;24023;51.280;7.148;2022-09-28T14:00:14;2.3;;;0.9;;
38220;SDS011;24023;51.280;7.148;2022-09-28T14:05:32;2.3;;;0.9;;
38220;SDS011;24023;51.280;7.148;2022-09-28T14:10:15;2.0;;;1.0;;
38220;SDS011;24023;51.280;7.148;2022-09-28T14:15:13;2.0;;;1.0;;
38220;SDS011;24023;51.280;7.148;2022-09-28T14:20:08;3.7;;;2.0;;
38220;SDS011;24023;51.280;7.148;2022-09-28T14:25:07;3.7;;;2.0;;
38220;SDS011;24023;51.280;7.148;2022-09-28T14:30:18;3.7;;;2.0;;
38220;SDS011;24023;51.280;7.148;2022-09-28T14:35:07;3.2;;;2.3;;
38220;SDS011;24023;51.280;7.148;2022-09-28T14:41:24;3.2;;;2.3;;
38220;SDS011;24023;51.280;7.148;2022-09-28T14:45:32;2.1;;;1.9;;
38220;SDS011;24023;51.280;7.148;2022-09-28T14:50:24;2.1;;;1.9;;
38220;SDS011;24023;51.280;7.148;2022-09-28T14:55:10;2.1;;;1.9;;
38220;SDS011;24023;51.280;7.148;2022-09-28T15:00:14;3.5;;;1.8;;
38220;SDS011;24023;51.280;7.148;2022-09-28T15:05:09;2.4;;;1.3;;
38220;SDS011;24023;51.280;7.148;2022-09-28T15:10:13;2.4;;;1.3;;
38220;SDS011;24023;51.280;7.148;2022-09-28T15:15:15;2.4;;;1.3;;
38220;SDS011;24023;51.280;7.148;2022-09-28T15:20:14;1.7;;;1.0;;
38220;SDS011;24023;51.280;7.148;2022-09-28T15:25:11;1.7;;;1.0;;
38220;SDS011;24023;51.280;7.148;2022-09-28T15:30:16;1.7;;;0.8;;
38220;SDS011;24023;51.280;7.148;2022-09-28T15:35:10;1.7;;;0.8;;
38220;SDS011;24023;51.280;7.148;2022-09-28T15:40:15;1.7;;;0.8;;
38220;SDS011;24023;51.280;7.148;2022-09-28T15:45:25;0.7;;;0.4;;
38220;SDS011;24023;51.280;7.148;2022-09-28T15:50:18;0.7;;;0.4;;
38220;SDS011;24023;51.280;7.148;2022-09-28T15:55:15;1.5;;;0.7;;
38220;SDS011;24023;51.280;7.148;2022-09-28T16:00:27;1.5;;;0.7;;
38220;SDS011;24023;51.280;7.148;2022-09-28T16:05:20;1.5;;;0.7;;
38220;SDS011;24023;51.280;7.148;2022-09-28T16:10:26;4.1;;;3.0;;
38220;SDS011;24023;51.280;7.148;2022-09-28T16:15:11;4.1;;;3.0;;
38220;SDS011;24023;51.280;7.148;2022-09-28T16:20:18;2.3;;;1.7;;
38220;SDS011;24023;51.280;7.148;2022-09-28T16:25:13;2.3;;;1.7;;
38220;SDS011;24023;51.280;7.148;2022-09-28T16:30:13;2.3;;;1.7;;
38220;SDS011;24023;51.280;7.148;2022-09-28T16:35:14;1.4;;;1.0;;
38220;SDS011;24023;51.280;7.148;2022-09-28T16:40:08;6.7;;;5.6;;
38220;SDS011;24023;51.280;7.148;2022-09-28T16:45:11;6.7;;;5.6;;
38220;SDS011;24023;51.280;7.148;2022-09-28T16:50:12;9.8;;;8.1;;
38220;SDS011;24023;51.280;7.148;2022-09-28T16:55:22;9.8;;;8.1;;
38220;SDS011;24023;51.280;7.148;2022-09-28T17:00:13;2.1;;;1.6;;
38220;SDS011;24023;51.280;7.148;2022-09-28T17:05:07;2.1;;;1.6;;
38220;SDS011;24023;51.280;7.148;2022-09-28T17:10:15;2.1;;;1.6;;
38220;SDS011;24023;51.280;7.148;2022-09-28T17:15:08;1.9;;;1.6;;
38220;SDS011;24023;51.280;7.148;2022-09-28T17:20:12;4.1;;;3.4;;
38220;SDS011;24023;51.280;7.148;2022-09-28T17:25:07;4.1;;;3.4;;
38220;SDS011;24023;51.280;7.148;2022-09-28T17:30:11;2.5;;;1.9;;
38220;SDS011;24023;51.280;7.148;2022-09-28T17:35:09;2.5;;;1.9;;
38220;SDS011;24023;51.280;7.148;2022-09-28T17:40:12;2.5;;;1.9;;
38220;SDS011;24023;51.280;7.148;2022-09-28T17:45:09;1.8;;;0.8;;
38220;SDS011;24023;51.280;7.148;2022-09-28T17:50:13;1.8;;;0.8;;
38220;SDS011;24023;51.280;7.148;2022-09-28T17:55:07;1.2;;;0.4;;
38220;SDS011;24023;51.280;7.148;2022-09-28T18:00:11;8.2;;;5.7;;
38220;SDS011;24023;51.280;7.148;2022-09-28T18:05:06;8.2;;;5.7;;
38220;SDS011;24023;51.280;7.148;2022-09-28T18:10:11;3.0;;;1.5;;
38220;SDS011;24023;51.280;7.148;2022-09-28T18:15:08;3.0;;;1.5;;
38220;SDS011;24023;51.280;7.148;2022-09-28T18:20:09;3.0;;;1.5;;
38220;SDS011;24023;51.280;7.148;2022-09-28T18:25:06;1.8;;;1.5;;
38220;SDS011;24023;51.280;7.148;2022-09-28T18:30:09;1.8;;;1.5;;
38220;SDS011;24023;51.280;7.148;2022-09-28T18:35:07;2.0;;;1.8;;
38220;SDS011;24023;51.280;7.148;2022-09-28T18:40:08;2.0;;;1.8;;
38220;SDS011;24023;51.280;7.148;2022-09-28T18:45:10;2.0;;;1.8;;
38220;SDS011;24023;51.280;7.148;2022-09-28T18:50:08;1.7;;;1.6;;
38220;SDS011;24023;51.280;7.148;2022-09-28T18:55:07;1.7;;;1.6;;
38220;SDS011;24023;51.280;7.148;2022-09-28T19:00:12;2.2;;;1.7;;
38220;SDS011;24023;51.280;7.148;2022-09-28T19:05:06;2.2;;;1.7;;
38220;SDS011;24023;51.280;7.148;2022-09-28T19:10:07;2.9;;;2.7;;
38220;SDS011;24023;51.280;7.148;2022-09-28T19:15:07;2.9;;;2.7;;
38220;SDS011;24023;51.280;7.148;2022-09-28T19:20:07;5.8;;;3.7;;
38220;SDS011;24023;51.280;7.148;2022-09-28T19:25:06;5.8;;;3.7;;
38220;SDS011;24023;51.280;7.148;2022-09-28T19:30:09;5.8;;;3.7;;
38220;SDS011;24023;51.280;7.148;2022-09-28T19:35:07;4.4;;;3.2;;
38220;SDS011;24023;51.280;7.148;2022-09-28T19:40:08;4.4;;;3.2;;
38220;SDS011;24023;51.280;7.148;2022-09-28T19:45:10;3.4;;;3.1;;
38220;SDS011;24023;51.280;7.148;2022-09-28T19:50:09;5.5;;;3.4;;
38220;SDS011;24023;51.280;7.148;2022-09-28T19:55:07;5.5;;;3.4;;
38220;SDS011;24023;51.280;7.148;2022-09-28T20:00:11;25.8;;;4.9;;
38220;SDS011;24023;51.280;7.148;2022-09-28T20:05:07;25.8;;;4.9;;
38220;SDS011;24023;51.280;7.148;2022-09-28T20:10:11;20.3;;;4.7;;
38220;SDS011;24023;51.280;7.148;2022-09-28T20:15:08;20.3;;;4.7;;
38220;SDS011;24023;51.280;7.148;2022-09-28T20:20:08;35.1;;;5.0;;
38220;SDS011;24023;51.280;7.148;2022-09-28T20:25:06;35.1;;;5.0;;
38220;SDS011;24023;51.280;7.148;2022-09-28T20:30:10;8.3;;;4.0;;
38220;SDS011;24023;51.280;7.148;2022-09-28T20:35:06;8.3;;;4.0;;
38220;SDS011;24023;51.280;7.148;2022-09-28T20:40:09;8.3;;;4.0;;
38220;SDS011;24023;51.280;7.148;2022-09-28T20:45:10;7.4;;;3.5;;
38220;SDS011;24023;51.280;7.148;2022-09-28T20:50:08;3.0;;;2.7;;
38220;SDS011;24023;51.280;7.148;2022-09-28T20:55:06;3.0;;;2.7;;
38220;SDS011;24023;51.280;7.148;2022-09-28T21:00:11;70.8;;;5.4;;
38220;SDS011;24023;51.280;7.148;2022-09-28T21:05:06;70.8;;;5.4;;
38220;SDS011;24023;51.280;7.148;2022-09-28T21:10:08;3.7;;;2.6;;
38220;SDS011;24023;51.280;7.148;2022-09-28T21:15:08;3.7;;;2.6;;
38220;SDS011;24023;51.280;7.148;2022-09-28T21:20:07;8.7;;;2.8;;
38220;SDS011;24023;51.280;7.148;2022-09-28T21:25:06;8.7;;;2.8;;
38220;SDS011;24023;51.280;7.148;2022-09-28T21:30:09;8.7;;;2.8;;
38220;SDS011;24023;51.280;7.148;2022-09-28T21:35:06;9.7;;;2.9;;
38220;SDS011;24023;51.280;7.148;2022-09-28T21:40:09;12.2;;;3.8;;
38220;SDS011;24023;51.280;7.148;2022-09-28T21:45:09;12.2;;;3.8;;
38220;SDS011;24023;51.280;7.148;2022-09-28T21:50:07;3.6;;;3.3;;
38220;SDS011;24023;51.280;7.148;2022-09-28T21:55:07;3.6;;;3.3;;
38220;SDS011;24023;51.280;7.148;2022-09-28T22:00:22;3.6;;;3.3;;
38220;SDS011;24023;51.280;7.148;2022-09-28T22:05:08;4.9;;;3.6;;
38220;SDS011;24023;51.280;7.148;2022-09-28T22:10:09;4.9;;;3.6;;
38220;SDS011;24023;51.280;7.148;2022-09-28T22:15:08;5.5;;;3.6;;
38220;SDS011;24023;51.280;7.148;2022-09-28T22:20:07;30.4;;;4.9;;
38220;SDS011;24023;51.280;7.148;2022-09-28T22:25:06;30.4;;;4.9;;
38220;SDS011;24023;51.280;7.148;2022-09-28T22:30:09;6.7;;;4.0;;
38220;SDS011;24023;51.280;7.148;2022-09-28T22:35:06;6.7;;;4.0;;
38220;SDS011;24023;51.280;7.148;2022-09-28T22:40:09;4.7;;;4.0;;
38220;SDS011;24023;51.280;7.148;2022-09-28T22:45:10;4.7;;;4.0;;
38220;SDS011;24023;51.280;7.148;2022-09-28T22:50:08;4.7;;;4.0;;
38220;SDS011;24023;51.280;7.148;2022-09-28T22:55:06;4.9;;;4.4;;
38220;SDS011;24023;51.280;7.148;2022-09-28T23:00:11;4.9;;;4.4;;
